createdAt,value
2022-11-18T00:01:22.541Z,1.63
2022-11-18T00:03:50.254Z,1.63
2022-11-18T00:06:19.794Z,1.73
2022-11-18T00:08:47.147Z,1.83
2022-11-18T00:11:39.191Z,1.50
2022-11-18T00:14:19.354Z,1.60
2022-11-18T00:16:51.099Z,1.83
2022-11-18T00:19:23.597Z,1.63
2022-11-18T00:21:51.075Z,1.90
2022-11-18T00:24:18.527Z,1.85
2022-11-18T00:26:45.462Z,1.90
2022-11-18T00:29:12.759Z,1.80
2022-11-18T00:31:39.982Z,1.52
2022-11-18T00:34:13.303Z,1.70
2022-11-18T00:36:41.457Z,2.08
2022-11-18T00:39:08.513Z,1.83
2022-11-18T00:41:53.810Z,1.98
2022-11-18T00:44:20.830Z,2.00
2022-11-18T00:46:47.816Z,2.00
2022-11-18T00:49:14.887Z,1.98
2022-11-18T00:51:42.009Z,1.77
2022-11-18T00:54:08.924Z,2.13
2022-11-18T00:56:35.815Z,1.90
2022-11-18T00:59:02.787Z,1.85
2022-11-18T01:01:29.847Z,1.33
2022-11-18T01:03:56.988Z,1.73
2022-11-18T01:06:24.774Z,1.67
2022-11-18T01:08:51.972Z,1.40
2022-11-18T01:11:37.303Z,1.30
2022-11-18T01:14:04.398Z,1.50
2022-11-18T01:16:31.416Z,1.10
2022-11-18T01:18:58.491Z,1.40
2022-11-18T01:21:28.437Z,1.10
2022-11-18T01:23:55.419Z,1.45
2022-11-18T01:26:22.399Z,1.13
2022-11-18T01:28:49.720Z,1.30
2022-11-18T01:31:19.470Z,1.60
2022-11-18T01:33:46.788Z,1.23
2022-11-18T01:36:25.529Z,1.30
2022-11-18T01:38:53.550Z,1.30
2022-11-18T01:41:22.353Z,1.25
2022-11-18T01:43:57.820Z,1.27
2022-11-18T01:46:27.433Z,1.38
2022-11-18T01:49:06.240Z,1.40
2022-11-18T01:51:37.414Z,1.40
2022-11-18T01:54:11.294Z,1.23
2022-11-18T01:56:43.762Z,1.10
2022-11-18T01:59:24.671Z,1.45
2022-11-18T02:01:55.304Z,1.30
2022-11-18T02:04:27.072Z,1.42
2022-11-18T02:06:54.849Z,1.67
2022-11-18T02:09:22.874Z,1.70
2022-11-18T02:11:56.232Z,1.50
2022-11-18T02:14:27.800Z,1.40
2022-11-18T02:17:19.608Z,1.30
2022-11-18T02:19:46.606Z,1.20
2022-11-18T02:22:59.743Z,1.17
2022-11-18T02:25:34.880Z,1.30
2022-11-18T02:28:25.130Z,1.00
2022-11-18T02:31:19.526Z,1.10
2022-11-18T02:34:00.119Z,1.20
2022-11-18T02:36:27.015Z,1.48
2022-11-18T02:39:02.370Z,1.42
2022-11-18T02:41:32.455Z,1.33
2022-11-18T02:44:05.817Z,1.30
2022-11-18T02:46:35.748Z,1.23
2022-11-18T02:49:06.397Z,1.05
2022-11-18T02:51:35.547Z,1.10
2022-11-18T02:54:07.441Z,1.05
2022-11-18T02:56:35.853Z,1.10
2022-11-18T02:59:04.590Z,0.93
2022-11-18T03:01:34.508Z,0.88
2022-11-18T03:04:02.044Z,0.90
2022-11-18T03:06:45.342Z,0.80
2022-11-18T03:09:27.127Z,1.02
2022-11-18T03:12:10.605Z,0.82
2022-11-18T03:14:49.282Z,1.10
2022-11-18T03:17:29.604Z,1.30
2022-11-18T03:20:10.225Z,1.80
2022-11-18T03:22:51.277Z,1.20
2022-11-18T03:25:50.387Z,1.33
2022-11-18T03:28:35.695Z,1.20
2022-11-18T03:31:29.037Z,1.48
2022-11-18T03:34:06.047Z,1.40
2022-11-18T03:36:37.980Z,1.10
2022-11-18T03:39:08.216Z,1.05
2022-11-18T03:41:41.276Z,1.10
2022-11-18T03:44:14.594Z,0.90
2022-11-18T03:46:46.665Z,1.00
2022-11-18T03:49:43.313Z,0.90
2022-11-18T03:52:22.794Z,1.15
2022-11-18T03:54:54.574Z,0.80
2022-11-18T03:57:42.709Z,0.73
2022-11-18T04:00:13.558Z,0.90
2022-11-18T04:02:40.899Z,0.63
2022-11-18T04:05:10.522Z,0.70
2022-11-18T04:08:06.758Z,0.82
2022-11-18T04:11:04.583Z,0.60
2022-11-18T04:13:35.133Z,0.60
2022-11-18T04:16:02.293Z,0.60
2022-11-18T04:18:29.291Z,0.60
2022-11-18T04:20:56.218Z,0.60
2022-11-18T04:23:23.183Z,0.47
2022-11-18T04:25:50.205Z,0.60
2022-11-18T04:28:17.262Z,0.57
2022-11-18T04:30:44.292Z,0.43
2022-11-18T04:33:11.384Z,0.45
2022-11-18T04:35:38.365Z,0.50
2022-11-18T04:38:05.407Z,0.40
2022-11-18T04:40:32.441Z,0.73
2022-11-18T04:42:59.511Z,0.50
2022-11-18T04:45:26.520Z,0.40
2022-11-18T04:47:54.927Z,0.40
2022-11-18T04:50:24.616Z,0.55
2022-11-18T04:52:51.599Z,0.40
2022-11-18T04:55:18.770Z,0.50
2022-11-18T04:57:45.762Z,0.60
2022-11-18T05:00:13.013Z,0.60
2022-11-18T05:02:40.083Z,0.60
2022-11-18T05:05:07.646Z,0.60
2022-11-18T05:07:34.816Z,0.50
2022-11-18T05:10:01.967Z,0.82
2022-11-18T05:12:47.851Z,0.50
2022-11-18T05:15:16.158Z,0.80
2022-11-18T05:17:43.235Z,0.47
2022-11-18T05:20:11.120Z,0.55
2022-11-18T05:22:38.444Z,0.50
2022-11-18T05:25:06.427Z,0.40
2022-11-18T05:27:33.981Z,0.38
2022-11-18T05:30:01.001Z,0.40
2022-11-18T05:32:27.972Z,0.50
2022-11-18T05:34:54.934Z,0.40
2022-11-18T05:37:21.911Z,0.40
2022-11-18T05:39:48.895Z,0.40
2022-11-18T05:42:34.511Z,0.50
2022-11-18T05:45:01.591Z,0.82
2022-11-18T05:47:48.545Z,0.40
2022-11-18T05:50:19.994Z,0.30
2022-11-18T05:52:48.204Z,0.30
2022-11-18T05:55:17.269Z,0.40
2022-11-18T05:57:44.962Z,0.45
2022-11-18T06:00:12.823Z,0.30
2022-11-18T06:02:42.746Z,0.40
2022-11-18T06:05:12.388Z,0.50
2022-11-18T06:07:43.115Z,0.40
2022-11-18T06:10:15.601Z,0.75
2022-11-18T06:12:45.825Z,0.43
2022-11-18T06:15:19.012Z,0.30
2022-11-18T06:18:17.270Z,0.30
2022-11-18T06:23:12.173Z,0.30
2022-11-18T06:25:40.926Z,0.50
2022-11-18T06:28:10.929Z,0.45
2022-11-18T06:30:38.686Z,0.50
2022-11-18T06:33:05.796Z,0.52
2022-11-18T06:35:32.975Z,0.40
2022-11-18T06:38:00.013Z,0.45
2022-11-18T06:40:31.667Z,0.52
2022-11-18T06:43:27.254Z,0.40
2022-11-18T06:46:16.370Z,0.70
2022-11-18T06:48:43.331Z,1.10
2022-11-18T06:51:10.375Z,0.52
2022-11-18T06:53:37.472Z,0.50
2022-11-18T06:56:08.088Z,0.65
2022-11-18T06:58:35.589Z,0.40
2022-11-18T07:01:14.672Z,0.40
2022-11-18T07:03:42.608Z,0.50
2022-11-18T07:06:11.215Z,0.50
2022-11-18T07:08:39.490Z,0.38
2022-11-18T07:11:08.961Z,0.40
2022-11-18T07:13:42.118Z,0.52
2022-11-18T07:16:15.935Z,0.55
2022-11-18T07:18:44.145Z,0.60
2022-11-18T07:21:13.710Z,0.50
2022-11-18T07:23:41.039Z,0.40
2022-11-18T07:26:08.486Z,0.40
2022-11-18T07:28:36.341Z,0.60
2022-11-18T07:31:05.868Z,0.50
2022-11-18T07:33:33.618Z,0.47
2022-11-18T07:36:05.504Z,0.50
2022-11-18T07:38:32.486Z,0.50
2022-11-18T07:41:08.326Z,0.50
2022-11-18T07:43:36.285Z,0.47
2022-11-18T07:46:16.251Z,0.63
2022-11-18T07:48:44.812Z,0.57
2022-11-18T07:53:40.965Z,0.60
2022-11-18T07:56:08.845Z,0.68
2022-11-18T07:58:36.760Z,0.60
2022-11-18T08:01:18.587Z,0.80
2022-11-18T08:03:46.491Z,0.60
2022-11-18T08:06:15.393Z,0.50
2022-11-18T08:08:42.573Z,0.57
2022-11-18T08:11:14.293Z,0.57
2022-11-18T08:13:44.645Z,0.50
2022-11-18T08:16:18.018Z,0.45
2022-11-18T08:18:45.357Z,0.60
2022-11-18T08:21:13.497Z,0.40
2022-11-18T08:23:42.496Z,0.50
2022-11-18T08:26:15.921Z,0.50
2022-11-18T08:28:44.598Z,0.60
2022-11-18T08:31:13.965Z,0.40
2022-11-18T08:33:41.651Z,0.60
2022-11-18T08:36:15.778Z,0.53
2022-11-18T08:38:42.785Z,0.60
2022-11-18T08:41:15.971Z,0.50
2022-11-18T08:43:43.255Z,0.45
2022-11-18T08:46:10.275Z,0.50
2022-11-18T08:48:37.236Z,0.60
2022-11-18T08:51:06.305Z,0.40
2022-11-18T08:53:33.399Z,0.38
2022-11-18T08:56:01.487Z,0.60
2022-11-18T08:58:28.902Z,0.43
2022-11-18T09:00:56.139Z,0.50
2022-11-18T09:03:23.670Z,0.50
2022-11-18T09:05:50.815Z,0.40
2022-11-18T09:08:17.779Z,0.30
2022-11-18T09:10:44.773Z,0.30
2022-11-18T09:13:42.525Z,0.40
2022-11-18T09:15:59.660Z,0.40
2022-11-18T09:18:27.081Z,0.30
2022-11-18T09:20:58.695Z,0.40
2022-11-18T09:23:29.349Z,0.30
2022-11-18T09:25:59.950Z,0.40
2022-11-18T09:28:27.653Z,0.43
2022-11-18T09:30:55.297Z,0.40
2022-11-18T09:33:22.915Z,0.43
2022-11-18T09:35:49.920Z,0.50
2022-11-18T09:38:16.926Z,0.50
2022-11-18T09:41:12.902Z,0.52
2022-11-18T09:44:17.105Z,0.40
2022-11-18T09:46:56.178Z,0.40
2022-11-18T09:49:43.768Z,0.50
2022-11-18T09:52:38.720Z,0.40
2022-11-18T09:55:16.441Z,0.60
2022-11-18T09:57:50.811Z,0.40
2022-11-18T10:00:26.583Z,0.40
2022-11-18T10:02:59.091Z,0.30
2022-11-18T10:05:33.220Z,0.30
2022-11-18T10:08:18.479Z,0.30
2022-11-18T10:11:04.926Z,0.30
2022-11-18T10:13:35.911Z,0.30
2022-11-18T10:16:27.856Z,0.50
2022-11-18T10:19:10.492Z,0.55
2022-11-18T10:21:55.535Z,1.23
2022-11-18T10:24:30.439Z,0.75
2022-11-18T10:27:00.160Z,0.75
2022-11-18T10:29:27.617Z,0.50
2022-11-18T10:32:14.089Z,0.50
2022-11-18T10:34:57.605Z,0.50
2022-11-18T10:37:38.721Z,0.50
2022-11-18T10:40:25.243Z,0.60
2022-11-18T10:42:52.876Z,0.40
2022-11-18T10:45:22.849Z,0.57
2022-11-18T10:48:10.367Z,0.50
2022-11-18T10:50:40.488Z,0.60
2022-11-18T10:53:37.529Z,0.40
2022-11-18T10:56:07.580Z,0.40
2022-11-18T10:58:48.488Z,0.32
2022-11-18T11:01:28.103Z,0.60
2022-11-18T11:04:23.176Z,0.45
2022-11-18T11:06:50.317Z,0.80
2022-11-18T11:09:29.240Z,0.40
2022-11-18T11:12:17.572Z,0.30
2022-11-18T11:17:29.718Z,0.35
2022-11-18T11:20:16.827Z,0.63
2022-11-18T11:22:45.130Z,0.50
2022-11-18T11:25:17.840Z,0.43
2022-11-18T11:28:19.202Z,0.50
2022-11-18T11:31:08.744Z,0.30
2022-11-18T11:33:41.794Z,0.45
2022-11-18T11:36:08.773Z,0.50
2022-11-18T11:39:14.676Z,0.40
2022-11-18T11:41:57.094Z,0.35
2022-11-18T11:44:56.627Z,0.30
2022-11-18T11:47:47.885Z,0.30
2022-11-18T11:51:03.011Z,0.38
2022-11-18T11:53:57.491Z,0.30
2022-11-18T11:56:35.259Z,0.40
2022-11-18T11:59:17.751Z,0.50
2022-11-18T12:02:17.776Z,0.40
2022-11-18T12:05:03.268Z,0.40
2022-11-18T12:07:39.010Z,0.55
2022-11-18T12:10:38.500Z,0.30
2022-11-18T12:13:35.319Z,0.40
2022-11-18T12:16:16.073Z,0.47
2022-11-18T12:19:14.787Z,0.50
2022-11-18T12:21:45.499Z,0.52
2022-11-18T12:24:18.723Z,0.40
2022-11-18T12:26:48.073Z,0.60
2022-11-18T12:29:21.457Z,0.60
2022-11-18T12:32:01.802Z,0.50
2022-11-18T12:34:35.330Z,0.43
2022-11-18T12:37:25.288Z,0.30
2022-11-18T12:39:55.241Z,0.47
2022-11-18T12:43:06.887Z,0.55
2022-11-18T12:45:45.969Z,0.38
2022-11-18T12:48:49.523Z,0.57
2022-11-18T12:51:16.437Z,0.20
2022-11-18T12:53:47.569Z,0.38
2022-11-18T12:56:17.471Z,0.30
2022-11-18T12:58:50.439Z,0.30
2022-11-18T13:01:21.176Z,0.30
2022-11-18T13:03:49.990Z,0.20
2022-11-18T13:06:24.815Z,0.40
2022-11-18T13:09:04.229Z,0.50
2022-11-18T13:11:45.813Z,0.70
2022-11-18T13:14:42.116Z,0.40
2022-11-18T13:17:46.647Z,0.60
2022-11-18T13:20:24.142Z,0.60
2022-11-18T13:23:15.259Z,0.52
2022-11-18T13:25:47.150Z,0.40
2022-11-18T13:28:29.130Z,0.90
2022-11-18T13:31:17.531Z,0.70
2022-11-18T13:33:44.636Z,0.90
2022-11-18T13:36:19.937Z,0.80
2022-11-18T13:38:55.937Z,0.85
2022-11-18T13:41:32.735Z,0.63
2022-11-18T13:44:21.823Z,0.70
2022-11-18T13:46:54.669Z,0.93
2022-11-18T13:49:36.076Z,0.70
2022-11-18T13:52:03.413Z,0.88
2022-11-18T13:54:30.448Z,0.90
2022-11-18T13:56:57.544Z,0.80
2022-11-18T13:59:25.217Z,0.73
2022-11-18T14:01:59.025Z,1.17
2022-11-18T14:04:29.477Z,0.70
2022-11-18T14:07:23.548Z,0.60
2022-11-18T14:10:08.595Z,0.70
2022-11-18T14:12:37.002Z,1.15
2022-11-18T14:15:39.139Z,0.60
2022-11-18T14:18:38.847Z,0.65
2022-11-18T14:21:06.294Z,0.65
2022-11-18T14:23:37.072Z,0.63
2022-11-18T14:26:06.163Z,0.70
2022-11-18T14:29:00.281Z,0.50
2022-11-18T14:31:30.253Z,0.60
2022-11-18T14:34:17.223Z,0.60
2022-11-18T14:36:45.840Z,0.60
2022-11-18T14:42:00.577Z,0.60
2022-11-18T14:44:28.692Z,0.50
2022-11-18T14:47:10.959Z,0.60
2022-11-18T14:49:37.996Z,0.55
2022-11-18T14:52:04.955Z,0.63
2022-11-18T14:54:31.942Z,0.60
2022-11-18T14:57:02.644Z,0.50
2022-11-18T14:59:29.820Z,0.60
2022-11-18T15:01:57.243Z,0.60
2022-11-18T15:04:25.305Z,0.73
2022-11-18T15:06:52.300Z,0.73
2022-11-18T15:09:19.394Z,0.60
2022-11-18T15:11:46.370Z,0.60
2022-11-18T15:14:13.324Z,0.57
2022-11-18T15:16:40.263Z,0.45
2022-11-18T15:19:14.125Z,0.60
2022-11-18T15:21:41.076Z,0.55
2022-11-18T15:24:08.084Z,0.50
2022-11-18T15:26:38.509Z,0.80
2022-11-18T15:29:05.900Z,0.80
2022-11-18T15:31:32.895Z,0.98
2022-11-18T15:34:05.041Z,1.10
2022-11-18T15:36:34.045Z,0.70
2022-11-18T15:39:00.958Z,0.90
2022-11-18T15:41:29.809Z,0.90
2022-11-18T15:43:59.410Z,1.13
2022-11-18T15:46:27.917Z,1.15
2022-11-18T15:51:23.889Z,0.95
2022-11-18T15:53:50.865Z,1.10
2022-11-18T15:56:23.631Z,0.98
2022-11-18T15:58:59.033Z,0.60
2022-11-18T16:01:31.272Z,1.20
2022-11-18T16:03:58.622Z,1.05
2022-11-18T16:06:25.975Z,0.70
2022-11-18T16:08:58.931Z,0.90
2022-11-18T16:11:46.085Z,0.75
2022-11-18T16:14:14.736Z,0.90
2022-11-18T16:16:43.338Z,1.00
2022-11-18T16:19:13.404Z,0.77
2022-11-18T16:21:42.843Z,1.20
2022-11-18T16:24:12.615Z,1.27
2022-11-18T16:26:39.997Z,1.20
2022-11-18T16:29:07.682Z,1.52
2022-11-18T16:31:41.051Z,1.30
2022-11-18T16:34:15.917Z,1.10
2022-11-18T16:36:45.016Z,1.30
2022-11-18T16:39:16.622Z,1.40
2022-11-18T16:41:45.072Z,0.95
2022-11-18T16:44:16.262Z,1.00
2022-11-18T16:46:49.915Z,1.90
2022-11-18T16:49:19.204Z,1.83
2022-11-18T16:51:49.202Z,1.35
2022-11-18T16:54:43.179Z,1.33
2022-11-18T16:57:12.318Z,1.13
2022-11-18T16:59:39.299Z,0.95
2022-11-18T17:02:06.720Z,0.95
2022-11-18T17:04:36.311Z,0.90
2022-11-18T17:07:03.456Z,1.10
2022-11-18T17:09:30.720Z,0.93
2022-11-18T17:12:00.900Z,0.90
2022-11-18T17:14:30.027Z,0.90
2022-11-18T17:16:57.904Z,1.15
2022-11-18T17:19:28.520Z,1.00
2022-11-18T17:21:55.705Z,0.98
2022-11-18T17:24:23.682Z,1.55
2022-11-18T17:26:52.229Z,1.15
2022-11-18T17:29:19.690Z,1.10
2022-11-18T17:31:46.894Z,1.10
2022-11-18T17:34:15.607Z,1.25
2022-11-18T17:36:43.160Z,1.10
2022-11-18T17:39:12.103Z,1.30
2022-11-18T17:41:58.014Z,1.20
2022-11-18T17:44:27.868Z,1.30
2022-11-18T17:46:55.086Z,1.23
2022-11-18T17:49:22.437Z,0.90
2022-11-18T17:51:51.414Z,1.10
2022-11-18T17:54:19.237Z,0.68
2022-11-18T17:56:47.267Z,0.77
2022-11-18T17:59:15.805Z,1.00
2022-11-18T18:04:10.095Z,0.70
2022-11-18T18:06:37.145Z,0.82
2022-11-18T18:09:04.189Z,0.70
2022-11-18T18:11:31.223Z,0.80
2022-11-18T18:14:14.308Z,0.70
2022-11-18T18:16:46.983Z,0.75
2022-11-18T18:19:17.727Z,0.75
2022-11-18T18:21:45.372Z,0.80
2022-11-18T18:24:14.731Z,0.87
2022-11-18T18:26:41.740Z,1.00
2022-11-18T18:29:08.731Z,0.93
2022-11-18T18:31:37.244Z,1.33
2022-11-18T18:36:32.124Z,1.73
2022-11-18T18:38:59.536Z,1.55
2022-11-18T18:41:26.991Z,1.40
2022-11-18T18:43:54.144Z,1.25
2022-11-18T18:46:30.474Z,1.20
2022-11-18T18:49:12.210Z,1.30
2022-11-18T18:51:41.693Z,1.20
2022-11-18T18:54:11.950Z,1.55
2022-11-18T18:56:39.094Z,1.77
2022-11-18T18:59:07.335Z,1.70
2022-11-18T19:01:34.463Z,2.10
2022-11-18T19:04:03.981Z,1.90
2022-11-18T19:09:21.458Z,2.17
2022-11-18T19:12:06.918Z,1.77
2022-11-18T19:14:35.487Z,1.80
2022-11-18T19:19:56.337Z,1.70
2022-11-18T19:22:23.803Z,1.77
2022-11-18T19:24:51.225Z,1.42
2022-11-18T19:27:19.661Z,1.88
2022-11-18T19:29:46.649Z,1.40
2022-11-18T19:32:14.130Z,1.67
2022-11-18T19:34:41.094Z,2.08
2022-11-18T19:37:08.029Z,1.73
2022-11-18T19:39:35.407Z,1.60
2022-11-18T19:42:02.521Z,1.73
2022-11-18T19:44:29.508Z,1.35
2022-11-18T19:46:56.473Z,1.52
2022-11-18T19:49:23.416Z,1.30
2022-11-18T19:51:50.636Z,1.50
2022-11-18T19:54:17.659Z,1.25
2022-11-18T19:56:44.612Z,1.20
2022-11-18T19:59:13.056Z,1.50
2022-11-18T20:01:40.413Z,1.30
2022-11-18T20:04:07.684Z,1.60
2022-11-18T20:06:35.753Z,1.50
2022-11-18T20:09:06.109Z,1.30
2022-11-18T20:11:33.038Z,1.40
2022-11-18T20:14:00.147Z,1.38
2022-11-18T20:16:27.265Z,1.40
2022-11-18T20:19:00.233Z,1.48
2022-11-18T20:21:28.874Z,1.40
2022-11-18T20:23:59.213Z,1.60
2022-11-18T20:26:29.266Z,2.47
2022-11-18T20:28:57.899Z,2.10
2022-11-18T20:31:26.610Z,1.98
2022-11-18T20:33:55.420Z,2.10
2022-11-18T20:36:25.157Z,1.83
2022-11-18T20:38:54.603Z,2.05
2022-11-18T20:41:22.839Z,1.52
2022-11-18T20:43:50.354Z,1.63
2022-11-18T20:46:20.968Z,2.03
2022-11-18T20:48:49.313Z,1.67
2022-11-18T20:51:17.775Z,1.52
2022-11-18T20:53:45.216Z,1.70
2022-11-18T20:56:17.891Z,1.73
2022-11-18T20:58:45.386Z,1.30
2022-11-18T21:01:14.176Z,1.50
2022-11-18T21:03:42.525Z,1.85
2022-11-18T21:06:14.214Z,1.13
2022-11-18T21:08:42.443Z,1.00
2022-11-18T21:11:12.450Z,1.48
2022-11-18T21:13:58.908Z,1.52
2022-11-18T21:16:27.458Z,1.40
2022-11-18T21:18:54.414Z,1.60
2022-11-18T21:21:40.299Z,1.27
2022-11-18T21:24:07.643Z,1.40
2022-11-18T21:26:35.930Z,1.10
2022-11-18T21:29:05.750Z,1.10
2022-11-18T21:31:33.384Z,1.13
2022-11-18T21:34:00.495Z,0.80
2022-11-18T21:36:28.513Z,0.68
2022-11-18T21:38:58.523Z,0.90
2022-11-18T21:41:26.323Z,0.80
2022-11-18T21:44:08.985Z,0.90
2022-11-18T21:46:37.724Z,0.80
2022-11-18T21:49:05.839Z,1.05
2022-11-18T21:51:34.493Z,0.60
2022-11-18T21:56:31.084Z,0.70
2022-11-18T21:59:01.172Z,0.93
2022-11-18T22:01:31.301Z,1.20
2022-11-18T22:04:01.244Z,1.10
2022-11-18T22:06:30.444Z,1.10
2022-11-18T22:08:57.960Z,0.90
2022-11-18T22:11:25.780Z,0.95
2022-11-18T22:13:53.833Z,1.17
2022-11-18T22:16:23.330Z,1.00
2022-11-18T22:18:57.280Z,0.75
2022-11-18T22:21:27.200Z,1.00
2022-11-18T22:23:59.427Z,1.10
2022-11-18T22:26:26.792Z,1.17
2022-11-18T22:28:55.449Z,1.40
2022-11-18T22:31:24.278Z,1.10
2022-11-18T22:33:52.508Z,1.27
2022-11-18T22:36:21.765Z,1.23
2022-11-18T22:38:49.370Z,1.25
2022-11-18T22:41:37.470Z,1.02
2022-11-18T22:44:07.953Z,0.95
2022-11-18T22:46:39.469Z,1.00
2022-11-18T22:49:07.599Z,1.00
2022-11-18T22:51:37.130Z,0.95
2022-11-18T22:59:20.658Z,1.17
2022-11-18T23:01:48.028Z,1.37
2022-11-18T23:04:14.955Z,1.05
2022-11-18T23:06:41.858Z,1.15
2022-11-18T23:09:10.064Z,1.05
2022-11-18T23:11:55.491Z,1.40
2022-11-18T23:14:22.378Z,1.00
2022-11-18T23:16:49.309Z,0.90
2022-11-18T23:19:17.768Z,0.80
2022-11-18T23:21:45.541Z,0.77
2022-11-18T23:24:14.342Z,0.98
2022-11-18T23:26:42.510Z,0.70
2022-11-18T23:29:13.727Z,1.20
2022-11-18T23:31:43.078Z,0.82
2022-11-18T23:34:12.196Z,0.70
2022-11-18T23:36:39.717Z,0.88
2022-11-18T23:39:07.270Z,0.60
2022-11-18T23:41:35.040Z,0.73
2022-11-18T23:44:02.353Z,0.70
2022-11-18T23:46:29.538Z,0.60
2022-11-18T23:48:56.683Z,0.70
2022-11-18T23:51:24.678Z,0.73
2022-11-18T23:53:54.342Z,0.90
2022-11-18T23:56:23.705Z,0.90
2022-11-18T23:58:52.988Z,0.70
